Lakeville, MN

12:20 PM CDT on May 27, 2017 (GMT -0500)
Airlake

Weather History for KLVN - July, 2013

Change the Weather History Date:

Monday, July 22, 2013

  Actual Average Record
Temperature  
Mean Temperature 73 °F -  
Max Temperature 84 °F 82 °F 93 °F (1984)
Min Temperature 62 °F 60 °F 48 °F (1985)
Cooling Degree Days 8    
Growing Degree Days 23 (Base 50)    
Moisture  
Dew Point 64 °F    
Average Humidity 77    
Maximum Humidity 100    
Minimum Humidity 54    
Precipitation  
Precipitation 0.00 in - - ()
Sea Level Pressure  
Sea Level Pressure 29.75 in    
Wind  
Wind Speed 7 mph (SW)    
Max Wind Speed 17 mph    
Max Gust Speed 23 mph    
Visibility 10 miles    
Events      
Averages and records for this station are not official NWS values.
T = Trace of Precipitation, MM = Missing Value Source: NWS Daily Summary

Daily Weather History Graph

Daily Weather History Graph

Search for Another Location

Airport or City:

Trip Planner

Search our weather history database for the weather conditions in past years. The results will help you decide how hot, cold, wet, or windy it might be!

Date:

Astronomy

Jul. 22, 2013 Rise Set
Actual Time 5:48 AM CDT 8:49 PM CDT
Civil Twilight 5:14 AM CDT 9:23 PM CDT
Nautical Twilight 4:29 AM CDT 10:08 PM CDT
Astronomical Twilight 3:36 AM CDT 11:00 PM CDT
Moon 8:31 PM CDT (7/22) 5:48 AM CDT (7/22)
Length of Visible Light 16h 09m
Length of Day
15h 00m
Full, 100% of the Moon is Illuminated
Jul 22
Full
Jul 22
Full
Jul 29
Last Quarter
Aug 6
New
Aug 14
First Quarter

Hourly Weather History & Observations

Time (CDT) Temp. Heat Index Dew Point Humidity Pressure Visibility Wind Dir Wind Speed Gust Speed Precip Events Conditions
12:10 AM 66.2 °F - 64.4 °F 94% 29.83 in 10.0 mi SSE 6.9 mph - N/A   Clear
12:30 AM 64.4 °F - 62.6 °F 94% 29.82 in 10.0 mi SSE 5.8 mph - N/A   Clear
12:50 AM 64.4 °F - 62.6 °F 94% 29.82 in 10.0 mi SSE 6.9 mph - N/A   Clear
1:10 AM 64.4 °F - 62.6 °F 94% 29.82 in 10.0 mi SSE 4.6 mph - N/A   Clear
1:30 AM 64.4 °F - 62.6 °F 94% 29.81 in 10.0 mi SSE 4.6 mph - N/A   Clear
1:50 AM 64.4 °F - 62.6 °F 94% 29.81 in 10.0 mi SSE 3.5 mph - N/A   Clear
2:09 AM 64.4 °F - 62.6 °F 94% 29.80 in 10.0 mi SSE 4.6 mph - N/A   Clear
2:30 AM 64.4 °F - 62.6 °F 94% 29.79 in 10.0 mi SSE 5.8 mph - N/A   Clear
2:50 AM 64.4 °F - 62.6 °F 94% 29.79 in 10.0 mi SSE 4.6 mph - N/A   Clear
3:09 AM 64.4 °F - 62.6 °F 94% 29.78 in 10.0 mi SSE 4.6 mph - N/A   Clear
3:30 AM 64.4 °F - 62.6 °F 94% 29.78 in 10.0 mi South 5.8 mph - N/A   Clear
3:50 AM 62.6 °F - 62.6 °F 100% 29.77 in 10.0 mi South 4.6 mph - N/A   Clear
4:10 AM 62.6 °F - 62.6 °F 100% 29.76 in 10.0 mi South 3.5 mph - N/A   Clear
4:30 AM 62.6 °F - 62.6 °F 100% 29.76 in 10.0 mi South 4.6 mph - N/A   Clear
4:49 AM 62.6 °F - 62.6 °F 100% 29.77 in 10.0 mi SSW 4.6 mph - N/A   Clear
5:10 AM 64.4 °F - 62.6 °F 94% 29.78 in 10.0 mi South 3.5 mph - N/A   Clear
5:29 AM 62.6 °F - 62.6 °F 100% 29.77 in 10.0 mi South 3.5 mph - N/A   Clear
5:50 AM 62.6 °F - 62.6 °F 100% 29.75 in 10.0 mi South 4.6 mph - N/A   Clear
6:10 AM 64.4 °F - 62.6 °F 94% 29.77 in 10.0 mi South 3.5 mph - N/A   Clear
6:29 AM 64.4 °F - 62.6 °F 94% 29.76 in 10.0 mi South 5.8 mph - N/A   Clear
6:50 AM 64.4 °F - 62.6 °F 94% 29.76 in 10.0 mi South 4.6 mph - N/A   Clear
7:10 AM 64.4 °F - 62.6 °F 94% 29.75 in 10.0 mi South 4.6 mph - N/A   Clear
7:30 AM 64.4 °F - 64.4 °F 100% 29.74 in 7.0 mi South 5.8 mph - N/A   Clear
7:50 AM 66.2 °F - 64.4 °F 94% 29.75 in 10.0 mi South 4.6 mph - N/A   Clear
8:09 AM 69.8 °F - 66.2 °F 88% 29.75 in 10.0 mi South 5.8 mph - N/A   Scattered Clouds
8:30 AM 69.8 °F - 66.2 °F 88% 29.74 in 10.0 mi South 6.9 mph - N/A   Scattered Clouds
8:50 AM 69.8 °F - 66.2 °F 88% 29.73 in 10.0 mi South 8.1 mph - N/A   Clear
9:09 AM 71.6 °F - 66.2 °F 83% 29.72 in 10.0 mi South 9.2 mph - N/A   Clear
9:30 AM 71.6 °F - 68.0 °F 88% 29.72 in 10.0 mi South 9.2 mph - N/A   Clear
9:50 AM 73.4 °F - 69.8 °F 88% 29.72 in 10.0 mi South 10.4 mph - N/A   Clear
10:09 AM 75.2 °F - 69.8 °F 83% 29.72 in 10.0 mi South 8.1 mph - N/A   Clear
10:30 AM 75.2 °F - 69.8 °F 83% 29.70 in 10.0 mi South 10.4 mph - N/A   Clear
10:50 AM 78.8 °F - 71.6 °F 78% 29.70 in 10.0 mi SSW 9.2 mph - N/A   Clear
11:10 AM 78.8 °F - 71.6 °F 78% 29.70 in 10.0 mi SSW 9.2 mph 18.4 mph N/A   Clear
11:30 AM 80.6 °F 84.6 °F 71.6 °F 74% 29.70 in 10.0 mi SW 4.6 mph - N/A   Clear
11:49 AM 80.6 °F 84.6 °F 71.6 °F 74% 29.70 in 10.0 mi SW 9.2 mph - N/A   Scattered Clouds
12:10 PM 80.6 °F 84.6 °F 71.6 °F 74% 29.70 in 10.0 mi SW 9.2 mph - N/A   Scattered Clouds
12:30 PM 80.6 °F 83.9 °F 69.8 °F 70% 29.70 in 10.0 mi WSW 6.9 mph - N/A   Clear
12:49 PM 80.6 °F 83.9 °F 69.8 °F 70% 29.70 in 10.0 mi WSW 9.2 mph - N/A   Clear
1:10 PM 82.4 °F 86.3 °F 69.8 °F 66% 29.70 in 10.0 mi WSW 10.4 mph - N/A   Scattered Clouds
1:29 PM 82.4 °F 86.3 °F 69.8 °F 66% 29.70 in 10.0 mi West 10.4 mph - N/A   Scattered Clouds
1:50 PM 80.6 °F 83.9 °F 69.8 °F 70% 29.71 in 10.0 mi West 11.5 mph 16.1 mph N/A   Mostly Cloudy
2:10 PM 80.6 °F 83.9 °F 69.8 °F 70% 29.70 in 10.0 mi West 6.9 mph - N/A   Mostly Cloudy
2:29 PM 82.4 °F 86.3 °F 69.8 °F 66% 29.70 in 10.0 mi WSW 9.2 mph - N/A   Mostly Cloudy
2:50 PM 82.4 °F 86.3 °F 69.8 °F 66% 29.70 in 10.0 mi West 9.2 mph 17.3 mph N/A   Mostly Cloudy
3:10 PM 82.4 °F 86.3 °F 69.8 °F 66% 29.70 in 10.0 mi WNW 9.2 mph - N/A   Scattered Clouds
3:30 PM 82.4 °F 87.2 °F 71.6 °F 70% 29.70 in 10.0 mi West 5.8 mph - N/A   Scattered Clouds
3:50 PM 84.2 °F 87.3 °F 68.0 °F 58% 29.69 in 10.0 mi West 13.8 mph 19.6 mph N/A   Scattered Clouds
4:10 PM 82.4 °F 86.3 °F 69.8 °F 66% 29.69 in 10.0 mi West 13.8 mph - N/A   Scattered Clouds
4:30 PM 82.4 °F 84.6 °F 66.2 °F 58% 29.69 in 10.0 mi NW 17.3 mph 21.9 mph N/A   Scattered Clouds
4:50 PM 80.6 °F 82.3 °F 64.4 °F 58% 29.69 in 10.0 mi NW 15.0 mph 23.0 mph N/A   Scattered Clouds
5:09 PM 82.4 °F 83.9 °F 64.4 °F 54% 29.71 in 10.0 mi WNW 11.5 mph - N/A   Scattered Clouds
5:30 PM 80.6 °F 82.3 °F 64.4 °F 58% 29.71 in 10.0 mi NW 12.7 mph 19.6 mph N/A   Scattered Clouds
5:50 PM 80.6 °F 82.3 °F 64.4 °F 58% 29.71 in 10.0 mi NW 13.8 mph 23.0 mph N/A   Scattered Clouds
6:10 PM 78.8 °F - 62.6 °F 57% 29.70 in 10.0 mi NW 13.8 mph - N/A   Clear
6:30 PM 78.8 °F - 62.6 °F 57% 29.71 in 10.0 mi WNW 13.8 mph 17.3 mph N/A   Clear
6:50 PM 78.8 °F - 62.6 °F 57% 29.73 in 10.0 mi NNW 11.5 mph 19.6 mph N/A   Clear
7:10 PM 78.8 °F - 62.6 °F 57% 29.74 in 10.0 mi NW 11.5 mph 17.3 mph N/A   Scattered Clouds
7:30 PM 75.2 °F - 60.8 °F 61% 29.76 in 10.0 mi NW 11.5 mph - N/A   Clear
7:50 PM 75.2 °F - 60.8 °F 61% 29.76 in 10.0 mi NW 11.5 mph - N/A   Clear
8:10 PM 73.4 °F - 60.8 °F 65% 29.76 in 10.0 mi NNW 13.8 mph - N/A   Clear
8:30 PM 73.4 °F - 59.0 °F 61% 29.77 in 10.0 mi NW 10.4 mph - N/A   Clear
8:49 PM 71.6 °F - 59.0 °F 64% 29.77 in 10.0 mi NW 12.7 mph 20.7 mph N/A   Clear
9:10 PM 71.6 °F - 57.2 °F 60% 29.78 in 10.0 mi NW 13.8 mph 19.6 mph N/A   Clear
9:30 PM 71.6 °F - 57.2 °F 60% 29.80 in 10.0 mi NW 11.5 mph 17.3 mph N/A   Clear
9:50 PM 69.8 °F - 57.2 °F 64% 29.81 in 10.0 mi NW 9.2 mph - N/A   Clear
10:10 PM 68.0 °F - 57.2 °F 68% 29.81 in 10.0 mi NW 9.2 mph - N/A   Clear
10:30 PM 69.8 °F - 57.2 °F 64% 29.82 in 10.0 mi North 11.5 mph - N/A   Clear
10:49 PM 68.0 °F - 55.4 °F 64% 29.83 in 10.0 mi North 9.2 mph - N/A   Clear
11:10 PM 66.2 °F - 55.4 °F 68% 29.84 in 10.0 mi NNW 9.2 mph - N/A   Clear
11:30 PM 66.2 °F - 55.4 °F 68% 29.85 in 10.0 mi NNW 5.8 mph - N/A   Clear
11:49 PM 66.2 °F - 55.4 °F 68% 29.85 in 10.0 mi NNW 9.2 mph - N/A   Mostly Cloudy